.
WxDataArchive / Data Records for 2016-04-13
2016-04-12 April 2016 2016-04-14

Data Records for Wednesday, 13 April 2016

Time	Temp	Chill	HIndex	Humid	Dewpt	 Wind 	HiWind	WindDir	Rain 	Barom
-----	----	-----	------	-----	-----	------	------	-------	-----	-----
00:00	35.0	35.0	35.0	73	27.2	0	0	---	0.00	30.336 
00:05	34.9	34.9	34.9	73	27.1	0	0	---	0.00	30.336 
00:10	34.7	34.7	34.7	74	27.3	0	0	---	0.00	30.336 
00:15	34.6	34.6	34.6	74	27.2	0	0	---	0.00	30.337 
00:20	34.4	34.4	34.4	75	27.3	0	0	---	0.00	30.337 
00:25	34.3	34.3	34.3	75	27.2	0	0	---	0.00	30.337 
00:30	34.1	34.1	34.1	75	27.0	0	0	---	0.00	30.335 
00:35	34.1	34.1	34.1	76	27.3	0	0	---	0.00	30.335 
00:40	34.0	34.0	34.0	77	27.6	0	0	---	0.00	30.335 
00:45	33.8	33.8	33.8	77	27.4	0	0	---	0.00	30.335 
00:50	33.7	33.7	33.7	77	27.3	0	0	---	0.00	30.335 
00:55	33.5	33.5	33.5	77	27.1	0	0	---	0.00	30.335 
01:00	33.4	33.4	33.4	78	27.3	0	0	---	0.00	30.339 
01:05	33.1	33.1	33.1	78	27.0	0	0	---	0.00	30.339 
01:10	32.9	32.9	32.9	78	26.8	0	0	---	0.00	30.339 
01:15	32.8	32.8	32.8	78	26.7	0	0	---	0.00	30.339 
01:20	32.7	32.7	32.7	79	26.9	0	0	---	0.00	30.339 
01:25	32.7	32.7	32.7	79	26.9	0	0	---	0.00	30.339 
01:30	32.5	32.5	32.5	79	26.7	0	0	---	0.00	30.339 
01:35	32.4	32.4	32.4	80	26.9	0	0	---	0.00	30.339 
01:40	32.2	32.2	32.2	80	26.7	0	0	---	0.00	30.339 
01:45	32.1	32.1	32.1	80	26.6	0	0	---	0.00	30.342 
01:50	32.1	32.1	32.1	81	26.9	0	0	---	0.00	30.342 
01:55	31.9	31.9	31.9	81	26.7	0	0	---	0.00	30.342 
02:00	31.8	31.8	31.8	81	26.6	0	1	22	0.00	30.343 
02:05	31.8	31.8	31.8	82	26.9	0	2	22	0.00	30.343 
02:10	31.9	31.9	31.9	82	27.0	0	0	---	0.00	30.343 
02:15	32.1	32.1	32.1	82	27.2	0	0	---	0.00	30.346 
02:20	32.1	32.1	32.1	83	27.5	0	0	---	0.00	30.346 
02:25	32.1	32.1	32.1	83	27.5	0	0	---	0.00	30.346 
02:30	31.9	31.9	31.9	83	27.3	0	0	---	0.00	30.347 
02:35	31.9	31.9	31.9	82	27.0	0	0	---	0.00	30.347 
02:40	31.8	31.8	31.8	82	26.9	0	0	---	0.00	30.347 
02:45	31.8	31.8	31.8	82	26.9	0	0	---	0.00	30.345 
02:50	31.6	31.6	31.6	82	26.7	0	0	---	0.00	30.345 
02:55	31.5	31.5	31.5	82	26.7	0	0	---	0.00	30.345 
03:00	31.5	31.5	31.5	82	26.7	0	0	---	0.00	30.352 
03:05	31.3	31.3	31.3	82	26.5	0	0	---	0.00	30.352 
03:10	31.2	31.2	31.2	82	26.4	0	0	---	0.00	30.352 
03:15	31.2	31.2	31.2	82	26.4	0	0	---	0.00	30.350 
03:20	31.2	31.2	31.2	82	26.4	0	0	---	0.00	30.350 
03:25	31.0	31.0	31.0	82	26.2	0	0	---	0.00	30.350 
03:30	30.9	30.9	30.9	82	26.1	0	0	---	0.00	30.345 
03:35	30.7	30.7	30.7	83	26.2	0	0	---	0.00	30.345 
03:40	30.7	30.7	30.7	83	26.2	0	0	---	0.00	30.345 
03:45	30.6	30.6	30.6	83	26.1	0	0	---	0.00	30.345 
03:50	30.4	30.4	30.4	83	25.9	0	0	---	0.00	30.345 
03:55	30.4	30.4	30.4	84	26.2	0	0	---	0.00	30.345 
04:00	30.4	30.4	30.4	84	26.2	0	0	---	0.00	30.350 
04:05	30.4	30.4	30.4	84	26.2	0	0	---	0.00	30.350 
04:10	30.3	30.3	30.3	84	26.1	0	0	---	0.00	30.350 
04:15	30.1	30.1	30.1	84	25.9	0	0	---	0.00	30.352 
04:20	30.1	30.1	30.1	84	25.9	0	0	---	0.00	30.352 
04:25	30.1	30.1	30.1	85	26.1	0	0	---	0.00	30.352 
04:30	30.0	30.0	30.0	85	26.0	0	0	---	0.00	30.352 
04:35	29.8	29.8	29.8	85	25.9	0	0	---	0.00	30.352 
04:40	29.8	29.8	29.8	85	25.9	0	0	---	0.00	30.352 
04:45	29.8	29.8	29.8	86	26.1	0	0	---	0.00	30.352 
04:50	30.0	30.0	30.0	87	26.6	0	0	---	0.00	30.352 
04:55	29.8	29.8	29.8	87	26.4	0	0	---	0.00	30.352 
05:00	29.8	29.8	29.8	87	26.4	0	0	---	0.00	30.346 
05:05	29.8	29.8	29.8	87	26.4	0	0	---	0.00	30.346 
05:10	29.7	29.7	29.7	87	26.3	0	0	---	0.00	30.346 
05:15	29.5	29.5	29.5	87	26.1	0	0	---	0.00	30.349 
05:20	29.5	29.5	29.5	88	26.4	0	0	---	0.00	30.349 
05:25	29.5	29.5	29.5	88	26.4	0	0	---	0.00	30.349 
05:30	29.5	29.5	29.5	88	26.4	0	0	---	0.00	30.347 
05:35	29.4	29.4	29.4	88	26.3	0	0	---	0.00	30.347 
05:40	29.4	29.4	29.4	88	26.3	0	0	---	0.00	30.347 
05:45	29.5	29.5	29.5	88	26.4	0	0	---	0.00	30.348 
05:50	29.5	29.5	29.5	88	26.4	0	0	---	0.00	30.348 
05:55	29.7	29.7	29.7	89	26.9	0	1	22	0.00	30.348 
06:00	30.1	30.1	30.1	89	27.3	0	0	---	0.00	30.346 
06:05	30.3	30.3	30.3	89	27.5	0	0	---	0.00	30.346 
06:10	30.4	30.4	30.4	88	27.3	0	0	---	0.00	30.346 
06:15	30.6	30.6	30.6	88	27.5	0	1	22	0.00	30.349 
06:20	30.7	30.7	30.7	88	27.6	0	0	---	0.00	30.349 
06:25	30.7	30.7	30.7	88	27.6	0	0	---	0.00	30.349 
06:30	30.9	30.9	30.9	87	27.5	0	0	---	0.00	30.352 
06:35	30.9	30.9	30.9	87	27.5	0	0	---	0.00	30.352 
06:40	30.7	30.7	30.7	87	27.3	0	0	---	0.00	30.352 
06:45	30.7	30.7	30.7	87	27.3	0	0	---	0.00	30.355 
06:50	30.6	30.6	30.6	87	27.2	0	0	---	0.00	30.355 
06:55	30.6	30.6	30.6	87	27.2	0	0	---	0.00	30.355 
07:00	30.6	30.6	30.6	87	27.2	0	0	---	0.00	30.361 
07:05	30.7	30.7	30.7	87	27.3	0	0	---	0.00	30.361 
07:10	30.7	30.7	30.7	87	27.3	0	0	---	0.00	30.361 
07:15	30.7	30.7	30.7	87	27.3	0	0	---	0.00	30.370 
07:20	30.7	30.7	30.7	87	27.3	0	0	---	0.00	30.370 
07:25	30.7	30.7	30.7	87	27.3	0	1	22	0.00	30.370 
07:30	31.0	31.0	31.0	87	27.6	0	2	22	0.00	30.365 
07:35	31.2	31.2	31.2	86	27.5	0	1	22	0.00	30.365 
07:40	31.5	31.5	31.5	86	27.8	0	2	22	0.00	30.365 
07:45	31.8	31.8	31.8	86	28.1	0	1	22	0.00	30.368 
07:50	32.4	32.4	32.4	85	28.4	0	4	22	0.00	30.368 
07:55	32.9	32.9	32.9	84	28.6	0	2	90	0.00	30.368 
08:00	33.7	33.7	33.7	82	28.8	0	3	90	0.00	30.362 
08:05	34.1	34.1	34.1	81	28.9	1	3	90	0.00	30.362 
08:10	34.6	34.6	34.6	80	29.1	1	3	90	0.00	30.362 
08:15	34.9	34.9	34.9	79	29.1	1	3	90	0.00	30.366 
08:20	35.2	35.2	35.2	78	29.0	1	3	90	0.00	30.366 
08:25	35.6	35.6	35.6	78	29.4	1	3	90	0.00	30.366 
08:30	36.0	36.0	36.0	77	29.5	1	3	90	0.00	30.369 
08:35	36.6	36.6	36.6	76	29.8	1	4	90	0.00	30.369 
08:40	37.0	37.0	37.0	76	30.2	2	3	90	0.00	30.369 
08:45	37.5	37.5	37.5	74	30.0	2	6	90	0.00	30.370 
08:50	38.0	38.0	38.0	73	30.1	2	4	90	0.00	30.370 
08:55	38.5	38.5	38.5	71	29.9	2	6	90	0.00	30.370 
09:00	38.5	38.5	38.5	72	30.3	2	5	90	0.00	30.368 
09:05	38.3	38.3	38.3	72	30.1	2	4	90	0.00	30.368 
09:10	38.5	38.5	38.5	69	29.2	1	4	90	0.00	30.368 
09:15	38.6	38.6	38.6	68	29.0	2	3	90	0.00	30.380 
09:20	38.9	38.9	38.9	68	29.3	1	3	90	0.00	30.380 
09:25	39.2	39.2	39.2	67	29.2	1	3	90	0.00	30.380 
09:30	39.5	39.5	39.5	65	28.7	0	3	90	0.00	30.376 
09:35	39.9	39.9	39.9	65	29.1	1	3	90	0.00	30.376 
09:40	40.5	40.5	40.5	64	29.3	1	4	158	0.00	30.376 
09:45	40.9	40.9	40.9	64	29.7	2	5	112	0.00	30.372 
09:50	41.3	41.3	41.3	64	30.1	1	4	135	0.00	30.372 
09:55	41.6	41.6	41.6	63	30.0	2	3	135	0.00	30.372 
10:00	42.2	42.2	42.2	61	29.7	2	6	112	0.00	30.368 
10:05	42.6	42.6	42.6	59	29.3	2	6	90	0.00	30.368 
10:10	42.8	42.8	42.8	57	28.6	2	6	112	0.00	30.368 
10:15	43.1	43.1	43.1	57	28.9	1	5	90	0.00	30.359 
10:20	43.6	43.6	43.6	57	29.4	2	6	90	0.00	30.359 
10:25	44.3	44.3	44.3	56	29.6	1	4	112	0.00	30.359 
10:30	45.2	45.2	45.2	55	30.0	2	7	112	0.00	30.354 
10:35	44.9	44.9	44.9	54	29.3	3	7	90	0.00	30.354 
10:40	44.9	44.9	44.9	54	29.3	1	4	112	0.00	30.354 
10:45	45.4	45.4	45.4	53	29.3	1	5	112	0.00	30.357 
10:50	46.1	46.1	46.1	53	29.9	1	3	68	0.00	30.357 
10:55	46.4	46.4	46.4	53	30.2	3	7	112	0.00	30.357 
11:00	46.2	46.2	46.2	53	30.0	3	7	90	0.00	30.354 
11:05	46.5	46.5	46.5	53	30.3	1	6	90	0.00	30.354 
11:10	47.3	47.3	47.3	52	30.6	1	4	68	0.00	30.354 
11:15	47.4	47.4	47.4	52	30.7	3	7	68	0.00	30.354 
11:20	47.9	47.9	47.9	53	31.6	2	6	90	0.00	30.354 
11:25	48.0	48.0	48.0	51	30.7	2	6	112	0.00	30.354 
11:30	48.0	48.0	48.0	52	31.2	3	6	112	0.00	30.351 
11:35	48.3	48.3	48.3	51	31.0	2	9	90	0.00	30.351 
11:40	48.8	48.8	48.8	50	31.0	2	9	90	0.00	30.351 
11:45	48.9	48.9	48.9	49	30.6	2	6	135	0.00	30.342 
11:50	48.9	48.9	48.9	48	30.1	2	7	112	0.00	30.342 
11:55	48.8	46.8	48.8	49	30.5	5	10	112	0.00	30.342 
12:00	48.6	48.6	48.6	51	31.3	3	6	112	0.00	30.336 
12:05	49.1	49.1	49.1	51	31.8	2	7	112	0.00	30.336 
12:10	49.4	49.4	49.4	50	31.5	2	6	112	0.00	30.336 
12:15	49.8	49.8	49.8	48	30.9	3	9	112	0.00	30.334 
12:20	49.5	48.3	49.5	50	31.6	4	11	90	0.00	30.334 
12:25	49.6	49.6	49.6	50	31.7	3	8	112	0.00	30.334 
12:30	50.2	50.2	50.2	49	31.8	3	6	90	0.00	30.323 
12:35	50.8	50.8	50.8	47	31.3	3	9	112	0.00	30.323 
12:40	50.2	50.2	50.2	46	30.2	4	11	90	0.00	30.323 
12:45	50.2	50.2	50.2	46	30.2	3	10	90	0.00	30.322 
12:50	50.5	50.5	50.5	46	30.5	3	7	112	0.00	30.322 
12:55	50.7	50.7	50.7	44	29.6	5	14	90	0.00	30.322 
13:00	50.4	50.4	50.4	45	29.9	5	13	112	0.00	30.324 
13:05	50.8	50.8	50.8	46	30.8	3	11	90	0.00	30.324 
13:10	51.0	51.0	51.0	45	30.4	5	10	112	0.00	30.324 
13:15	51.0	51.0	51.0	46	31.0	3	7	112	0.00	30.323 
13:20	51.0	51.0	51.0	46	31.0	4	11	90	0.00	30.323 
13:25	51.3	51.3	51.3	45	30.7	4	9	112	0.00	30.323 
13:30	51.6	51.6	51.6	43	29.8	3	9	90	0.00	30.317 
13:35	51.6	51.6	51.6	45	31.0	3	7	90	0.00	30.317 
13:40	52.2	52.2	52.2	47	32.6	3	7	90	0.00	30.317 
13:45	52.5	52.5	52.5	42	30.1	4	10	112	0.00	30.314 
13:50	52.8	52.8	52.8	43	30.9	3	9	112	0.00	30.314 
13:55	52.9	52.9	52.9	40	29.2	3	11	112	0.00	30.314 
14:00	52.9	52.9	52.9	43	31.0	3	10	90	0.00	30.314 
14:05	53.1	53.1	53.1	44	31.8	3	11	90	0.00	30.314 
14:10	53.1	53.1	53.1	40	29.4	3	10	90	0.00	30.314 
14:15	52.6	52.6	52.6	39	28.4	3	12	90	0.00	30.312 
14:20	52.5	52.5	52.5	40	28.9	2	6	90	0.00	30.312 
14:25	52.9	52.9	52.9	40	29.2	2	7	112	0.00	30.312 
14:30	53.5	53.5	53.5	42	31.0	2	7	112	0.00	30.311 
14:35	53.6	53.6	53.6	36	27.3	3	7	90	0.00	30.311 
14:40	53.2	53.2	53.2	38	28.3	3	7	90	0.00	30.311 
14:45	53.1	53.1	53.1	38	28.2	3	9	90	0.00	30.312 
14:50	52.9	52.9	52.9	35	26.0	3	9	90	0.00	30.312 
14:55	52.8	52.8	52.8	38	27.9	3	8	90	0.00	30.312 
15:00	52.9	52.9	52.9	39	28.6	1	4	135	0.00	30.311 
15:05	53.1	53.1	53.1	35	26.2	2	7	112	0.00	30.311 
15:10	52.9	52.9	52.9	33	24.6	3	9	112	0.00	30.311 
15:15	53.1	53.1	53.1	39	28.8	3	8	112	0.00	30.322 
15:20	52.9	52.9	52.9	38	28.0	3	7	90	0.00	30.322 
15:25	52.8	52.8	52.8	38	27.9	2	6	90	0.00	30.322 
15:30	53.1	53.1	53.1	40	29.4	3	5	90	0.00	30.318 
15:35	53.5	53.5	53.5	38	28.5	3	6	90	0.00	30.318 
15:40	53.5	53.5	53.5	38	28.5	4	7	90	0.00	30.318 
15:45	53.5	53.5	53.5	38	28.5	3	11	112	0.00	30.304 
15:50	53.3	53.3	53.3	37	27.7	2	7	90	0.00	30.304 
15:55	52.9	52.9	52.9	39	28.6	3	8	112	0.00	30.304 
16:00	52.8	52.8	52.8	39	28.5	2	6	90	0.00	30.301 
16:05	52.8	52.8	52.8	40	29.2	2	5	112	0.00	30.301 
16:10	52.8	52.8	52.8	39	28.5	4	9	112	0.00	30.301 
16:15	52.6	52.6	52.6	39	28.4	3	7	90	0.00	30.293 
16:20	52.8	52.8	52.8	41	29.8	1	4	90	0.00	30.293 
16:25	52.9	52.9	52.9	41	29.8	2	5	90	0.00	30.293 
16:30	52.8	52.8	52.8	39	28.5	3	7	90	0.00	30.290 
16:35	52.6	52.6	52.6	41	29.6	2	6	90	0.00	30.290 
16:40	52.5	52.5	52.5	40	28.9	2	9	90	0.00	30.290 
16:45	52.3	52.3	52.3	38	27.5	3	9	90	0.00	30.288 
16:50	52.0	52.0	52.0	41	29.0	3	6	90	0.00	30.288 
16:55	51.9	51.9	51.9	42	29.5	2	7	90	0.00	30.288 
17:00	52.0	52.0	52.0	41	29.0	3	10	112	0.00	30.285 
17:05	52.0	52.0	52.0	40	28.4	3	10	90	0.00	30.285 
17:10	52.2	52.2	52.2	43	30.4	3	9	112	0.00	30.285 
17:15	52.5	52.5	52.5	41	29.5	3	9	90	0.00	30.275 
17:20	52.5	52.5	52.5	40	28.9	3	7	112	0.00	30.275 
17:25	52.5	52.5	52.5	41	29.5	2	6	112	0.00	30.275 
17:30	52.5	52.5	52.5	40	28.9	3	7	90	0.00	30.277 
17:35	52.5	52.5	52.5	41	29.5	2	9	90	0.00	30.277 
17:40	52.5	52.5	52.5	39	28.3	2	9	112	0.00	30.277 
17:45	52.3	52.3	52.3	41	29.3	4	10	112	0.00	30.276 
17:50	52.3	52.3	52.3	40	28.7	4	9	90	0.00	30.276 
17:55	52.2	52.2	52.2	41	29.2	3	7	112	0.00	30.276 
18:00	52.2	52.2	52.2	41	29.2	3	12	90	0.00	30.275 
18:05	52.2	52.2	52.2	41	29.2	3	10	112	0.00	30.275 
18:10	51.9	51.9	51.9	42	29.5	2	6	90	0.00	30.275 
18:15	51.9	51.9	51.9	41	28.9	2	11	90	0.00	30.278 
18:20	51.6	51.6	51.6	41	28.7	4	10	112	0.00	30.278 
18:25	51.4	51.4	51.4	41	28.5	3	7	90	0.00	30.278 
18:30	51.3	51.3	51.3	42	29.0	2	5	90	0.00	30.274 
18:35	51.3	51.3	51.3	40	27.8	3	7	90	0.00	30.274 
18:40	51.1	51.1	51.1	41	28.2	4	9	90	0.00	30.274 
18:45	51.0	51.0	51.0	41	28.1	3	6	112	0.00	30.273 
18:50	51.1	51.1	51.1	42	28.8	2	6	90	0.00	30.273 
18:55	51.1	51.1	51.1	41	28.2	3	9	112	0.00	30.273 
19:00	51.0	51.0	51.0	41	28.1	2	7	135	0.00	30.275 
19:05	51.0	51.0	51.0	41	28.1	2	5	90	0.00	30.275 
19:10	50.8	50.8	50.8	42	28.5	3	7	112	0.00	30.275 
19:15	50.5	50.5	50.5	42	28.3	2	5	90	0.00	30.273 
19:20	50.4	50.4	50.4	42	28.2	3	6	90	0.00	30.273 
19:25	50.1	50.1	50.1	41	27.3	3	6	90	0.00	30.273 
19:30	49.9	49.9	49.9	42	27.7	1	5	90	0.00	30.272 
19:35	49.8	49.8	49.8	43	28.2	2	5	112	0.00	30.272 
19:40	49.6	49.6	49.6	43	28.0	3	7	90	0.00	30.272 
19:45	49.4	49.4	49.4	42	27.3	2	5	90	0.00	30.274 
19:50	49.2	49.2	49.2	44	28.2	1	3	90	0.00	30.274 
19:55	48.9	48.9	48.9	44	28.0	1	5	90	0.00	30.274 
20:00	48.8	48.8	48.8	45	28.4	1	3	112	0.00	30.275 
20:05	48.5	48.5	48.5	46	28.7	1	4	112	0.00	30.275 
20:10	48.0	48.0	48.0	46	28.2	2	4	112	0.00	30.275 
20:15	47.7	47.7	47.7	47	28.5	2	4	112	0.00	30.270 
20:20	47.3	47.3	47.3	48	28.6	1	4	90	0.00	30.270 
20:25	47.0	47.0	47.0	50	29.3	1	4	112	0.00	30.270 
20:30	46.5	46.5	46.5	51	29.4	0	2	135	0.00	30.273 
20:35	46.2	46.2	46.2	52	29.6	1	7	112	0.00	30.273 
20:40	46.0	46.0	46.0	53	29.8	1	3	270	0.00	30.273 
20:45	45.7	45.7	45.7	54	30.0	1	4	292	0.00	30.283 
20:50	45.2	45.2	45.2	54	29.6	2	5	112	0.00	30.283 
20:55	45.1	45.1	45.1	54	29.5	2	6	112	0.00	30.283 
21:00	44.8	44.8	44.8	54	29.2	2	7	112	0.00	30.280 
21:05	44.5	44.5	44.5	54	28.9	1	6	90	0.00	30.280 
21:10	44.2	44.2	44.2	54	28.6	2	5	112	0.00	30.280 
21:15	43.9	43.9	43.9	56	29.2	1	4	90	0.00	30.284 
21:20	43.6	43.6	43.6	56	29.0	2	5	112	0.00	30.284 
21:25	43.3	43.3	43.3	57	29.1	1	3	112	0.00	30.284 
21:30	43.2	43.2	43.2	57	29.0	1	4	112	0.00	30.289 
21:35	42.9	42.9	42.9	57	28.7	0	2	112	0.00	30.289 
21:40	42.8	42.8	42.8	57	28.6	0	3	45	0.00	30.289 
21:45	42.6	42.6	42.6	56	28.0	2	10	68	0.00	30.297 
21:50	42.6	42.6	42.6	56	28.0	1	5	90	0.00	30.297 
21:55	42.5	42.5	42.5	56	27.9	1	5	90	0.00	30.297 
22:00	42.2	42.2	42.2	55	27.2	2	6	112	0.00	30.301 
22:05	42.1	42.1	42.1	56	27.5	2	5	68	0.00	30.301 
22:10	41.9	41.9	41.9	56	27.4	1	5	90	0.00	30.301 
22:15	41.6	41.6	41.6	56	27.1	3	6	90	0.00	30.289 
22:20	41.5	41.5	41.5	57	27.4	3	6	90	0.00	30.289 
22:25	41.2	41.2	41.2	57	27.1	1	4	112	0.00	30.289 
22:30	41.1	41.1	41.1	58	27.5	1	4	112	0.00	30.296 
22:35	40.8	40.8	40.8	58	27.2	2	5	112	0.00	30.296 
22:40	40.6	40.6	40.6	59	27.4	1	3	90	0.00	30.296 
22:45	40.5	40.5	40.5	59	27.3	1	3	90	0.00	30.297 
22:50	40.3	40.3	40.3	60	27.5	1	6	90	0.00	30.297 
22:55	40.2	40.2	40.2	60	27.4	1	5	90	0.00	30.297 
23:00	40.1	40.1	40.1	61	27.7	0	3	90	0.00	30.300 
23:05	39.8	39.8	39.8	62	27.9	1	3	90	0.00	30.300 
23:10	39.6	39.6	39.6	62	27.7	2	5	90	0.00	30.300 
23:15	39.5	39.5	39.5	62	27.6	1	5	90	0.00	30.296 
23:20	39.2	39.2	39.2	62	27.3	1	4	90	0.00	30.296 
23:25	38.9	38.9	38.9	63	27.4	1	4	90	0.00	30.296 
23:30	38.8	38.8	38.8	63	27.3	1	4	112	0.00	30.294 
23:35	38.6	38.6	38.6	63	27.1	0	3	90	0.00	30.294 
23:40	38.3	38.3	38.3	63	26.8	0	4	90	0.00	30.294 
23:45	38.2	38.2	38.2	62	26.3	1	4	90	0.00	30.295 
23:50	38.0	38.0	38.0	62	26.2	1	4	90	0.00	30.295 
23:55	37.9	37.9	37.9	63	26.4	1	4	90	0.00	30.295 

CoCoRaHS
IN-AL-39
A2 Web Hosting
Creative Commons License
GoDaddy
search engine by freefind advanced

loaded 2018-11-15 04:13:27 • last modified 2010-11-18 10:43:29
Privacy PolicyDisclaimer
• wx.awcolley.com is powered by PmWiki v.2002016 •
• all content (unless otherwise noted) © 2018 A W Colley